Main page
METAR-TAF:

METAR-TAF

Airports :

José Martí International Airport

Havana, Cuba

latitude: 22-59N, longitude: 082-24W, elevation: 59 m

Current weather observation

The report was made 32 minutes ago, at 05:55 UTC
Wind 2 kt from variable directions
Temperature 20°C
Humidity 78%
Pressure 1016 hPa
Visibility: 9000 m
Scattered clouds at a height of 2000 ft

METAR: MUHA 210555Z VRB02KT 9000 SCT020 20/16 Q1016

Time: 02:27 (06:27 UTC)

Forecast

The report was made 1 hour and 27 minutes ago, at 05:00 UTC
Forecast valid from 21 at 06 UTC to 22 at 06 UTC
Wind 5 kt from the North
Visibility: 9000 m
Scattered clouds at a height of 2000 ft
Becoming
from 21 at 15 UTC to 21 at 17 UTC
Wind 12 kt from the North/Northeast

TAF: MUHA 210500Z 2106/2206 36005KT 9000 SCT020 BECMG 2115/2117 02012KT

Weather observations and forecasts of more than 4000 airports (METAR and TAF reports).

The available stations are represented by yellow and red dots on the map.

Hover mouse over dot to see the name of the station.

Then click to see weather observations and forecasts.

To change the map : click on the green buttons with a black cross to zoom in, on the green button with a dash to zoom out, or on the green arrows for adjacent maps.


METAR-TAF: